Time;durP1;ratioP1;P1;durP2;ratioP2;P2;SDS_P1;SDS_P2;PMS_P1;PMS_P2;Temp;Humidity;BMP_temperature;BMP_pressure;BME280_temperature;BME280_humidity;BME280_pressure;Samples;Min_cycle;Max_cycle;Signal;HPM_P1;HPM_P2
2022/12/18 00:00:39;;;;;;;;;;;;;;;-4.20;100.00;102891.31;5057564;28;19955;-83
2022/12/18 00:03:04;;;;;;;;;;;;;;;-4.23;100.00;102892.16;5061131;28;19920;-83
2022/12/18 00:05:29;;;;;;;;;;;;;;;-4.21;100.00;102874.13;5059209;28;19916;-82
2022/12/18 00:07:55;;;;;;;;;;;;;;;-4.27;100.00;102874.97;5066313;28;19916;-83
2022/12/18 00:10:20;;;;;;;;;;;;;;;-4.37;100.00;102873.31;5048056;28;19921;-82
2022/12/18 00:12:45;;;;;;;;;;;;;;;-4.42;100.00;102875.03;5059709;28;19920;-84
2022/12/18 00:15:10;;;;;;;;;;;;;;;-4.31;100.00;102883.63;5058878;28;19920;-83
2022/12/18 00:17:36;;;;;;;;;;;;;;;-4.24;100.00;102889.59;5059309;28;19921;-82
2022/12/18 00:20:01;;;;;;;;;;;;;;;-4.36;100.00;102888.75;5040636;28;19935;-82
2022/12/18 00:22:26;;;;;;;;;;;;;;;-4.29;100.00;102891.31;5059882;28;19960;-83
2022/12/18 00:24:52;;;;;;;;;;;;;;;-4.31;100.00;102896.50;5059605;28;20375;-82
2022/12/18 00:27:17;;;;;;;;;;;;;;;-4.35;100.00;102897.38;5040069;28;19920;-83
2022/12/18 00:29:42;;;;;;;;;;;;;;;-4.27;100.00;102900.75;5057468;28;19923;-83
2022/12/18 00:32:07;;;;;;;;;;;;;;;-4.23;100.00;102902.47;5054139;28;19943;-82
2022/12/18 00:34:33;;;;;;;;;;;;;;;-4.31;100.00;102893.03;5059206;28;19920;-82
2022/12/18 00:36:58;;;;;;;;;;;;;;;-4.36;100.00;102899.06;5059616;28;20348;-82
2022/12/18 00:39:23;;;;;;;;;;;;;;;-4.35;100.00;102881.91;5057948;28;19912;-82
2022/12/18 00:44:32;;;;;;;;;;;;;;;-4.39;100.00;102886.19;5058848;28;19927;-81
2022/12/18 00:46:57;;;;;;;;;;;;;;;-4.41;100.00;102893.06;5039776;28;19920;-82
2022/12/18 00:49:23;;;;;;;;;;;;;;;-4.48;100.00;102898.25;5054316;28;19963;-83
2022/12/18 00:51:48;;;;;;;;;;;;;;;-4.54;100.00;102901.69;5056776;28;19966;-81
2022/12/18 00:54:13;;;;;;;;;;;;;;;-4.46;100.00;102893.97;5036009;28;19920;-83
2022/12/18 00:56:39;;;;;;;;;;;;;;;-4.54;100.00;102891.38;5050723;28;19935;-82
2022/12/18 00:59:04;;;;;;;;;;;;;;;-4.50;100.00;102882.78;5057490;28;19991;-82
2022/12/18 01:04:05;;;;;;;;;;;;;;;-4.40;100.00;102889.66;5423634;22;19919;-70
2022/12/18 01:06:30;;;;;;;;;;;;;;;-4.48;100.00;102882.78;5097858;28;19939;-70
2022/12/18 01:08:56;;;;;;;;;;;;;;;-4.41;100.00;102881.91;5097600;28;19907;-70
2022/12/18 01:11:22;;;;;;;;;;;;;;;-4.31;100.00;102890.47;5099264;28;19943;-71
2022/12/18 01:13:47;;;;;;;;;;;;;;;-4.36;100.00;102893.06;5098780;28;20027;-71
2022/12/18 01:16:13;;;;;;;;;;;;;;;-4.37;100.00;102899.09;5099116;28;20010;-72
2022/12/18 01:18:39;;;;;;;;;;;;;;;-4.55;100.00;102905.16;5098555;28;20161;-72
2022/12/18 01:21:08;;;;;;;;;;;;;;;-4.41;100.00;102899.94;5099279;28;20366;-71
2022/12/18 01:23:33;;;;;;;;;;;;;;;-4.45;100.00;102905.97;5097743;28;20035;-71
2022/12/18 01:26:03;;;;;;;;;;;;;;;-4.42;100.00;102916.25;5100507;28;20002;-72
2022/12/18 01:28:29;;;;;;;;;;;;;;;-4.44;100.00;102907.69;5099083;28;19911;-71
2022/12/18 01:30:54;;;;;;;;;;;;;;;-4.55;100.00;102903.41;5099052;28;19926;-71
2022/12/18 01:33:19;;;;;;;;;;;;;;;-4.50;100.00;102915.44;5099550;28;19923;-71
2022/12/18 01:35:44;;;;;;;;;;;;;;;-4.47;100.00;102912.84;5097985;28;19915;-71
2022/12/18 01:38:10;;;;;;;;;;;;;;;-4.51;100.00;102908.56;5099654;28;19963;-71
2022/12/18 01:40:35;;;;;;;;;;;;;;;-4.55;100.00;102920.59;5098753;28;19959;-72
2022/12/18 01:43:00;;;;;;;;;;;;;;;-4.50;100.00;102915.44;5097913;28;19919;-71
2022/12/18 01:45:27;;;;;;;;;;;;;;;-4.48;100.00;102916.31;5099693;28;19958;-71
2022/12/18 01:47:52;;;;;;;;;;;;;;;-4.55;100.00;102911.16;5098203;28;19953;-71
2022/12/18 01:50:18;;;;;;;;;;;;;;;-4.49;100.00;102914.56;5099437;28;19958;-72
2022/12/18 01:52:44;;;;;;;;;;;;;;;-4.52;100.00;102924.91;5099594;28;19915;-72
2022/12/18 01:55:11;;;;;;;;;;;;;;;-4.57;100.00;102912.88;5099198;28;20337;-70
2022/12/18 01:57:37;;;;;;;;;;;;;;;-4.59;100.00;102922.31;5099738;28;20007;-73
2022/12/18 02:00:10;;;;;;;;;;;;;;;-4.57;100.00;102925.75;5098746;28;19908;-71
2022/12/18 02:02:36;;;;;;;;;;;;;;;-4.47;100.00;102923.16;5099976;28;20396;-71
2022/12/18 02:05:02;;;;;;;;;;;;;;;-4.74;100.00;102872.53;5099549;28;19919;-72
2022/12/18 02:07:46;;;;;;;;;;;;;;;-4.43;100.00;102930.03;5099518;28;19911;-71
2022/12/18 02:10:17;;;;;;;;;;;;;;;-4.46;100.00;102924.88;5098136;28;20489;-71
2022/12/18 02:12:48;;;;;;;;;;;;;;;-4.57;100.00;102925.75;5099738;28;19912;-71
2022/12/18 02:15:20;;;;;;;;;;;;;;;-4.69;100.00;102912.03;5099416;28;19908;-71
2022/12/18 02:17:52;;;;;;;;;;;;;;;-4.76;100.00;102912.03;5099581;28;20011;-71
2022/12/18 02:20:23;;;;;;;;;;;;;;;-4.81;100.00;102913.75;5098150;28;20433;-71
2022/12/18 02:22:57;;;;;;;;;;;;;;;-4.93;100.00;102900.88;5099266;28;19926;-71
2022/12/18 02:25:23;;;;;;;;;;;;;;;-5.04;100.00;102890.56;5099296;28;20010;-71
2022/12/18 02:27:49;;;;;;;;;;;;;;;-5.09;100.00;102894.00;5098124;28;20431;-70
2022/12/18 02:30:15;;;;;;;;;;;;;;;-5.11;100.00;102894.00;5097898;28;20243;-70
2022/12/18 02:32:42;;;;;;;;;;;;;;;-5.11;100.00;102899.16;5099897;28;19953;-70
2022/12/18 02:35:10;;;;;;;;;;;;;;;-5.10;100.00;102887.97;5098126;28;19916;-71
2022/12/18 02:37:38;;;;;;;;;;;;;;;-5.41;100.00;102841.63;5104621;28;20326;-71
2022/12/18 02:40:04;;;;;;;;;;;;;;;-5.16;100.00;102890.56;5096773;28;19908;-70
2022/12/18 02:42:30;;;;;;;;;;;;;;;-5.27;100.00;102889.69;5097678;28;19923;-70
2022/12/18 02:44:55;;;;;;;;;;;;;;;-5.37;100.00;102876.81;5096718;28;19912;-71
2022/12/18 02:47:22;;;;;;;;;;;;;;;-5.42;100.00;102875.97;5096539;28;19947;-70
2022/12/18 02:49:57;;;;;;;;;;;;;;;-5.44;100.00;102867.38;5096805;28;20326;-71
2022/12/18 02:52:41;;;;;;;;;;;;;;;-5.49;100.00;102881.06;5097390;28;19912;-71
2022/12/18 02:55:06;;;;;;;;;;;;;;;-5.46;100.00;102876.81;5097011;28;20224;-70
2022/12/18 02:57:35;;;;;;;;;;;;;;;-5.45;100.00;102882.78;5097011;28;20010;-71
2022/12/18 03:00:00;;;;;;;;;;;;;;;-5.55;100.00;102870.75;5097441;28;19912;-71
2022/12/18 03:02:31;;;;;;;;;;;;;;;-5.62;100.00;102869.88;5097651;28;20374;-70
2022/12/18 03:05:10;;;;;;;;;;;;;;;-5.66;100.00;102878.47;5094760;28;19998;-71
2022/12/18 03:07:59;;;;;;;;;;;;;;;-5.67;100.00;102879.31;5096593;28;20191;-71
2022/12/18 03:10:26;;;;;;;;;;;;;;;-5.75;100.00;102884.44;5087647;28;20030;-70
2022/12/18 03:12:53;;;;;;;;;;;;;;;-5.78;100.00;102890.44;5096370;28;19915;-70
2022/12/18 03:15:20;;;;;;;;;;;;;;;-5.78;100.00;102887.84;5096793;28;20584;-71
2022/12/18 03:17:52;;;;;;;;;;;;;;;-5.74;100.00;102893.03;5096984;28;19918;-71
2022/12/18 03:20:19;;;;;;;;;;;;;;;-5.80;100.00;102892.13;5096418;28;19934;-69
2022/12/18 03:22:47;;;;;;;;;;;;;;;-5.70;100.00;102897.34;5096049;28;19926;-70
2022/12/18 03:25:13;;;;;;;;;;;;;;;-5.68;100.00;102899.06;5102816;28;19911;-70
2022/12/18 03:27:41;;;;;;;;;;;;;;;-5.73;100.00;102893.00;5096738;28;19986;-70
2022/12/18 03:30:12;;;;;;;;;;;;;;;-5.75;100.00;102883.56;5096047;28;19912;-71
2022/12/18 03:32:47;;;;;;;;;;;;;;;-5.78;100.00;102880.16;5095782;28;20026;-70
2022/12/18 03:35:14;;;;;;;;;;;;;;;-5.74;100.00;102877.59;5103221;28;19912;-70
2022/12/18 03:37:39;;;;;;;;;;;;;;;-5.78;100.00;102869.84;5096531;28;19912;-69
2022/12/18 03:40:05;;;;;;;;;;;;;;;-5.74;100.00;102875.03;5078853;28;20006;-72
2022/12/18 03:42:50;;;;;;;;;;;;;;;-5.74;100.00;102875.03;5096557;28;19916;-70
2022/12/18 03:45:16;;;;;;;;;;;;;;;-5.76;100.00;102879.31;5095637;28;19907;-74
2022/12/18 03:47:59;;;;;;;;;;;;;;;-5.76;100.00;102871.59;5096453;28;19930;-73
2022/12/18 03:50:33;;;;;;;;;;;;;;;-5.81;100.00;102875.00;5095735;28;19919;-74
2022/12/18 03:53:22;;;;;;;;;;;;;;;-5.79;100.00;102873.28;5096676;28;19919;-73
2022/12/18 03:55:47;;;;;;;;;;;;;;;-5.75;100.00;102868.16;5088442;28;19911;-73
2022/12/18 03:58:16;;;;;;;;;;;;;;;-5.76;100.00;102869.03;5097725;28;19911;-73
2022/12/18 04:00:42;;;;;;;;;;;;;;;-5.84;100.00;102853.56;5097218;28;19919;-73
2022/12/18 04:03:08;;;;;;;;;;;;;;;-5.85;100.00;102857.84;5094724;28;20053;-72
2022/12/18 04:05:34;;;;;;;;;;;;;;;-5.90;100.00;102851.84;5097267;28;20002;-74
2022/12/18 04:08:00;;;;;;;;;;;;;;;-5.95;100.00;102858.69;5096843;28;20389;-72
2022/12/18 04:10:26;;;;;;;;;;;;;;;-5.97;100.00;102862.13;5096690;28;19949;-73
2022/12/18 04:12:55;;;;;;;;;;;;;;;-5.95;100.00;102858.69;5096219;28;20012;-74
2022/12/18 04:15:20;;;;;;;;;;;;;;;-5.90;100.00;102859.56;5096765;28;19919;-74
2022/12/18 04:17:48;;;;;;;;;;;;;;;-5.86;100.00;102874.09;5096438;28;19912;-73
2022/12/18 04:20:14;;;;;;;;;;;;;;;-5.86;100.00;102868.97;5096193;28;19919;-73
2022/12/18 04:22:39;;;;;;;;;;;;;;;-5.90;100.00;102869.84;5097038;28;19912;-73
2022/12/18 04:25:04;;;;;;;;;;;;;;;-5.94;100.00;102852.69;5097661;28;19919;-73
2022/12/18 04:27:29;;;;;;;;;;;;;;;-5.93;100.00;102867.22;5097686;28;19915;-73
2022/12/18 04:29:55;;;;;;;;;;;;;;;-5.96;100.00;102862.13;5079559;28;19923;-72
2022/12/18 04:32:20;;;;;;;;;;;;;;;-6.00;100.00;102866.38;5078368;28;19919;-72
2022/12/18 04:34:45;;;;;;;;;;;;;;;-6.02;100.00;102869.81;5098368;28;19916;-73
2022/12/18 04:37:11;;;;;;;;;;;;;;;-6.07;100.00;102866.38;5096953;28;20023;-73
2022/12/18 04:39:36;;;;;;;;;;;;;;;-6.05;100.00;102867.25;5095467;28;19989;-73
2022/12/18 04:42:01;;;;;;;;;;;;;;;-6.07;100.00;102874.09;5096418;28;19961;-73
2022/12/18 04:44:26;;;;;;;;;;;;;;;-6.05;100.00;102864.69;5099236;28;19969;-73
2022/12/18 04:46:52;;;;;;;;;;;;;;;-6.12;100.00;102868.06;5100300;28;19915;-73
2022/12/18 04:49:17;;;;;;;;;;;;;;;-6.10;100.00;102867.19;5083835;28;19999;-74
2022/12/18 04:51:42;;;;;;;;;;;;;;;-6.16;100.00;102869.78;5098873;28;19951;-74
2022/12/18 04:54:07;;;;;;;;;;;;;;;-6.18;100.00;102856.06;5100633;28;19968;-74
2022/12/18 04:56:33;;;;;;;;;;;;;;;-6.16;100.00;102856.03;5099992;28;19912;-73
2022/12/18 04:58:58;;;;;;;;;;;;;;;-6.15;100.00;102857.78;5100021;28;19919;-73
2022/12/18 05:01:23;;;;;;;;;;;;;;;-6.16;100.00;102863.75;5098888;28;19965;-72
2022/12/18 05:03:48;;;;;;;;;;;;;;;-6.21;100.00;102867.16;5100842;28;19927;-73
2022/12/18 05:06:14;;;;;;;;;;;;;;;-6.21;100.00;102859.44;5099973;28;19962;-73
2022/12/18 05:08:39;;;;;;;;;;;;;;;-6.18;100.00;102862.88;5100204;28;19998;-74
2022/12/18 05:11:07;;;;;;;;;;;;;;;-6.22;100.00;102873.16;5098372;28;20006;-73
2022/12/18 05:13:32;;;;;;;;;;;;;;;-6.22;100.00;102883.44;5100213;28;19916;-73
2022/12/18 05:15:57;;;;;;;;;;;;;;;-6.15;100.00;102880.91;5099098;28;19939;-73
2022/12/18 05:18:23;;;;;;;;;;;;;;;-6.11;100.00;102880.06;5098191;28;19919;-73
2022/12/18 05:20:49;;;;;;;;;;;;;;;-6.15;100.00;102873.19;5097846;28;19915;-74
2022/12/18 05:23:14;;;;;;;;;;;;;;;-6.22;100.00;102873.16;5098706;28;19969;-73
2022/12/18 05:25:40;;;;;;;;;;;;;;;-6.24;100.00;102867.16;5099323;28;19915;-73
2022/12/18 05:28:05;;;;;;;;;;;;;;;-6.22;100.00;102867.16;5098687;28;19918;-73
2022/12/18 05:30:30;;;;;;;;;;;;;;;-6.21;100.00;102867.16;5099059;28;20010;-73
2022/12/18 05:32:55;;;;;;;;;;;;;;;-6.26;100.00;102865.44;5099456;28;20324;-72
2022/12/18 05:35:21;;;;;;;;;;;;;;;-6.29;100.00;102868.84;5099448;28;19916;-74
2022/12/18 05:37:46;;;;;;;;;;;;;;;-6.27;100.00;102864.56;5098865;28;19998;-74
2022/12/18 05:40:11;;;;;;;;;;;;;;;-6.33;100.00;102863.69;5099197;28;19916;-74
2022/12/18 05:42:37;;;;;;;;;;;;;;;-6.32;100.00;102861.09;5096528;28;19915;-74
2022/12/18 05:45:02;;;;;;;;;;;;;;;-6.37;100.00;102864.53;5096302;28;20393;-72
2022/12/18 05:47:28;;;;;;;;;;;;;;;-6.41;100.00;102866.19;5098288;28;19916;-74
2022/12/18 05:49:53;;;;;;;;;;;;;;;-6.38;100.00;102871.34;5100198;28;19911;-73
2022/12/18 05:52:19;;;;;;;;;;;;;;;-6.36;100.00;102869.66;5098620;28;19919;-71
2022/12/18 05:54:44;;;;;;;;;;;;;;;-6.36;100.00;102879.06;5096496;28;20505;-73
2022/12/18 05:57:10;;;;;;;;;;;;;;;-6.37;100.00;102873.09;5098916;28;20524;-73
2022/12/18 05:59:35;;;;;;;;;;;;;;;-6.35;100.00;102873.94;5099689;28;19963;-73
2022/12/18 06:02:00;;;;;;;;;;;;;;;-6.35;100.00;102884.22;5098497;28;19920;-73
2022/12/18 06:04:27;;;;;;;;;;;;;;;-6.39;100.00;102879.06;5098570;28;20373;-74
2022/12/18 06:06:52;;;;;;;;;;;;;;;-6.37;100.00;102890.22;5098563;28;20428;-74
2022/12/18 06:09:18;;;;;;;;;;;;;;;-6.36;100.00;102889.34;5081253;28;20014;-73
2022/12/18 06:11:43;;;;;;;;;;;;;;;-6.46;100.00;102888.44;5098336;28;19999;-73
2022/12/18 06:14:09;;;;;;;;;;;;;;;-6.49;100.00;102903.81;5098974;28;19908;-73
2022/12/18 06:16:35;;;;;;;;;;;;;;;-6.47;100.00;102897.00;5098221;28;19919;-75
2022/12/18 06:19:02;;;;;;;;;;;;;;;-6.50;100.00;102899.56;5096707;28;19916;-73
2022/12/18 06:21:28;;;;;;;;;;;;;;;-6.44;100.00;102905.59;5097149;28;19919;-74
2022/12/18 06:23:53;;;;;;;;;;;;;;;-6.48;100.00;102903.00;5097062;28;20290;-73
2022/12/18 06:26:18;;;;;;;;;;;;;;;-6.51;100.00;102905.53;5097534;28;20385;-74
2022/12/18 06:28:44;;;;;;;;;;;;;;;-6.49;100.00;102919.25;5096102;28;20419;-73
2022/12/18 06:31:09;;;;;;;;;;;;;;;-6.51;100.00;102905.53;5096724;28;20049;-72
2022/12/18 06:33:35;;;;;;;;;;;;;;;-6.54;100.00;102906.38;5096894;28;19921;-72
2022/12/18 06:36:10;;;;;;;;;;;;;;;-6.52;100.00;102903.81;5098814;28;19912;-73
2022/12/18 06:38:38;;;;;;;;;;;;;;;-6.54;100.00;102895.25;5095509;28;19907;-74
2022/12/18 06:41:17;;;;;;;;;;;;;;;-6.53;100.00;102878.97;5112132;27;19975;-72
2022/12/18 06:43:42;;;;;;;;;;;;;;;-6.52;100.00;102873.84;5095437;28;19911;-73
2022/12/18 06:46:08;;;;;;;;;;;;;;;-6.50;100.00;102879.00;5080100;28;19911;-74
2022/12/18 06:48:33;;;;;;;;;;;;;;;-6.54;100.00;102883.25;5112407;27;20926;-73
2022/12/18 06:50:58;;;;;;;;;;;;;;;-6.52;100.00;102870.44;5097221;28;19912;-74
2022/12/18 06:53:24;;;;;;;;;;;;;;;-6.56;100.00;102855.84;5094637;28;19916;-72
2022/12/18 06:55:49;;;;;;;;;;;;;;;-6.55;100.00;102857.53;5091392;28;19981;-74
2022/12/18 06:58:15;;;;;;;;;;;;;;;-6.57;100.00;102859.28;5094626;28;19927;-73
2022/12/18 07:00:40;;;;;;;;;;;;;;;-6.57;100.00;102860.13;5094561;28;19916;-72
2022/12/18 07:03:05;;;;;;;;;;;;;;;-6.60;100.00;102865.22;5095528;28;19923;-72
2022/12/18 07:05:30;;;;;;;;;;;;;;;-6.62;100.00;102866.94;5093460;28;20014;-73
2022/12/18 07:07:56;;;;;;;;;;;;;;;-6.60;100.00;102860.09;5093174;28;19923;-72
2022/12/18 07:10:21;;;;;;;;;;;;;;;-6.58;100.00;102860.97;5094091;28;19915;-73
2022/12/18 07:12:46;;;;;;;;;;;;;;;-6.57;100.00;102860.13;5094881;28;20015;-72
2022/12/18 07:15:12;;;;;;;;;;;;;;;-6.55;100.00;102853.28;5094567;28;19911;-73
2022/12/18 07:17:37;;;;;;;;;;;;;;;-6.50;100.00;102850.75;5094326;28;20011;-72
2022/12/18 07:20:02;;;;;;;;;;;;;;;-6.51;100.00;102859.28;5095063;28;19994;-73
2022/12/18 07:22:28;;;;;;;;;;;;;;;-6.57;100.00;102852.44;5095292;28;19949;-73
2022/12/18 07:24:53;;;;;;;;;;;;;;;-6.60;100.00;102846.41;5094524;28;19915;-73
2022/12/18 07:27:18;;;;;;;;;;;;;;;-6.56;100.00;102845.56;5094954;28;20093;-72
2022/12/18 07:29:43;;;;;;;;;;;;;;;-6.51;100.00;102849.00;5094591;28;19965;-73
2022/12/18 07:32:08;;;;;;;;;;;;;;;-6.51;100.00;102847.31;5093300;28;19950;-72
2022/12/18 07:34:34;;;;;;;;;;;;;;;-6.55;100.00;102844.69;5074381;28;19920;-74
2022/12/18 07:36:59;;;;;;;;;;;;;;;-6.52;100.00;102842.16;5091842;28;20431;-73
2022/12/18 07:39:25;;;;;;;;;;;;;;;-6.54;100.00;102843.88;5092378;28;19922;-74
2022/12/18 07:44:34;;;;;;;;;;;;;;;-6.50;100.00;102835.34;5091306;28;19923;-74
2022/12/18 07:46:59;;;;;;;;;;;;;;;-6.47;100.00;102840.47;5076623;28;19923;-72
2022/12/18 07:49:24;;;;;;;;;;;;;;;-6.48;100.00;102831.06;5089481;28;19920;-71
2022/12/18 07:51:50;;;;;;;;;;;;;;;-6.50;100.00;102840.47;5092283;28;19920;-72
2022/12/18 07:54:15;;;;;;;;;;;;;;;-6.39;100.00;102841.38;5092611;28;19919;-72
2022/12/18 07:56:40;;;;;;;;;;;;;;;-6.40;100.00;102847.38;5092932;28;19918;-73
2022/12/18 07:59:06;;;;;;;;;;;;;;;-6.40;100.00;102842.25;5093694;28;19916;-72
2022/12/18 08:01:31;;;;;;;;;;;;;;;-6.37;100.00;102852.53;5091552;28;19972;-72
2022/12/18 08:03:57;;;;;;;;;;;;;;;-6.35;100.00;102850.81;5086967;28;19971;-73
2022/12/18 08:06:22;;;;;;;;;;;;;;;-6.39;100.00;102843.94;5087649;28;19919;-72
2022/12/18 08:08:47;;;;;;;;;;;;;;;-6.34;100.00;102852.53;5088614;28;20320;-72
2022/12/18 08:11:13;;;;;;;;;;;;;;;-6.32;100.00;102850.81;5085146;28;20490;-71
2022/12/18 08:13:38;;;;;;;;;;;;;;;-6.29;100.00;102848.28;5087137;28;19923;-72
2022/12/18 08:16:05;;;;;;;;;;;;;;;-6.26;100.00;102847.44;5093601;28;20320;-72
2022/12/18 08:18:34;;;;;;;;;;;;;;;-6.28;100.00;102847.44;5095083;28;19919;-72
2022/12/18 08:24:03;;;;;;;;;;;;;;;-6.22;100.00;102856.88;5092144;27;19954;-71
2022/12/18 08:26:29;;;;;;;;;;;;;;;-6.15;100.00;102848.34;5094825;28;20363;-72
2022/12/18 08:28:55;;;;;;;;;;;;;;;-6.13;100.00;102845.78;5098430;28;19916;-73
2022/12/18 08:31:21;;;;;;;;;;;;;;;-6.04;100.00;102846.66;5095832;28;20290;-72
2022/12/18 08:33:48;;;;;;;;;;;;;;;-6.02;100.00;102844.09;5092436;28;19920;-72
2022/12/18 08:36:13;;;;;;;;;;;;;;;-6.00;100.00;102837.25;5092780;28;19918;-72
2022/12/18 08:38:38;;;;;;;;;;;;;;;-5.98;100.00;102839.84;5084341;28;20139;-73
2022/12/18 08:41:06;;;;;;;;;;;;;;;-5.95;100.00;102835.53;5089731;28;20018;-71
2022/12/18 08:46:16;;;;;;;;;;;;;;;-5.78;100.00;102839.00;5101590;28;20393;-73
2022/12/18 08:48:41;;;;;;;;;;;;;;;-5.90;100.00;102844.13;5102168;28;20358;-74
2022/12/18 08:51:09;;;;;;;;;;;;;;;-5.75;100.00;102845.84;5101848;28;19927;-71
2022/12/18 08:53:34;;;;;;;;;;;;;;;-5.68;100.00;102845.03;5101912;28;20266;-73
2022/12/18 08:55:59;;;;;;;;;;;;;;;-5.68;100.00;102850.19;5102125;28;19914;-73
2022/12/18 08:58:25;;;;;;;;;;;;;;;-5.58;100.00;102857.03;5099450;28;19920;-72
2022/12/18 09:00:50;;;;;;;;;;;;;;;-5.44;100.00;102866.53;5107101;28;19912;-72
2022/12/18 09:03:16;;;;;;;;;;;;;;;-5.29;100.00;102873.38;5099114;28;20478;-72
2022/12/18 09:05:42;;;;;;;;;;;;;;;-5.24;100.00;102871.69;5101464;28;20030;-72
2022/12/18 09:08:07;;;;;;;;;;;;;;;-5.16;100.00;102867.41;5103749;28;20022;-72
2022/12/18 09:10:32;;;;;;;;;;;;;;;-5.01;100.00;102869.97;5100851;28;20400;-72
2022/12/18 09:12:58;;;;;;;;;;;;;;;-4.91;100.00;102867.41;5102465;28;20354;-73
2022/12/18 09:15:23;;;;;;;;;;;;;;;-4.94;100.00;102864.81;5102086;28;19919;-73
2022/12/18 09:17:49;;;;;;;;;;;;;;;-4.89;100.00;102852.81;5100634;28;20338;-73
2022/12/18 09:20:15;;;;;;;;;;;;;;;-4.78;100.00;102866.53;5100325;28;19920;-72
2022/12/18 09:22:40;;;;;;;;;;;;;;;-4.67;100.00;102871.66;5105023;28;20042;-72
2022/12/18 09:25:07;;;;;;;;;;;;;;;-4.68;100.00;102865.66;5102484;28;19918;-72
2022/12/18 09:27:33;;;;;;;;;;;;;;;-4.37;100.00;102868.16;5100735;28;19919;-73
2022/12/18 09:29:58;;;;;;;;;;;;;;;-4.47;100.00;102858.72;5100904;28;20288;-72
2022/12/18 09:32:23;;;;;;;;;;;;;;;-4.39;100.00;102859.56;5101528;28;19977;-72
2022/12/18 09:34:49;;;;;;;;;;;;;;;-4.21;100.00;102854.34;5099647;28;19927;-73
2022/12/18 09:37:14;;;;;;;;;;;;;;;-3.89;100.00;102862.81;5100938;28;20512;-73
2022/12/18 09:39:39;;;;;;;;;;;;;;;-3.66;100.00;102842.03;5101022;28;19912;-73
2022/12/18 09:42:06;;;;;;;;;;;;;;;-3.66;100.00;102829.97;5082992;28;19970;-73
2022/12/18 09:44:43;;;;;;;;;;;;;;;-3.83;100.00;102829.22;5092279;28;19915;-73
2022/12/18 09:47:23;;;;;;;;;;;;;;;-3.83;100.00;102824.94;5091287;28;20265;-73
2022/12/18 09:49:50;;;;;;;;;;;;;;;-3.83;100.00;102824.94;5099604;28;19958;-73
2022/12/18 09:52:19;;;;;;;;;;;;;;;-3.86;100.00;102819.78;5099041;28;19926;-73
2022/12/18 09:54:49;;;;;;;;;;;;;;;-3.99;100.00;102833.63;5094282;28;20311;-73
2022/12/18 09:57:17;;;;;;;;;;;;;;;-4.05;100.00;102824.19;5107203;27;20363;-72
2022/12/18 09:59:44;;;;;;;;;;;;;;;-4.22;100.00;102816.53;5092858;28;19922;-73
2022/12/18 10:02:14;;;;;;;;;;;;;;;-4.27;100.00;102818.25;5090386;28;19920;-74
2022/12/18 10:04:40;;;;;;;;;;;;;;;-4.14;100.00;102817.38;5088225;28;19920;-72
2022/12/18 10:07:14;;;;;;;;;;;;;;;-4.07;100.00;102825.06;5092629;28;19938;-73
2022/12/18 10:09:57;;;;;;;;;;;;;;;-4.02;100.00;102813.84;5094974;28;20417;-73
2022/12/18 10:12:32;;;;;;;;;;;;;;;-2.73;100.00;102819.75;5096296;28;20430;-73
2022/12/18 10:15:05;;;;;;;;;;;;;;;-1.69;100.00;102818.44;5096317;28;19918;-73
2022/12/18 10:17:47;;;;;;;;;;;;;;;-0.81;100.00;102816.97;5096528;28;20274;-74
2022/12/18 10:20:13;;;;;;;;;;;;;;;0.17;100.00;102821.91;5105343;28;20406;-75
2022/12/18 10:22:47;;;;;;;;;;;;;;;1.91;100.00;102818.28;5097605;28;20010;-74
2022/12/18 10:25:28;;;;;;;;;;;;;;;2.15;100.00;102810.63;5096801;28;20293;-75
2022/12/18 10:28:00;;;;;;;;;;;;;;;2.05;100.00;102810.91;5096137;28;19911;-75
2022/12/18 10:30:26;;;;;;;;;;;;;;;2.12;100.00;102800.31;5097504;28;19963;-75
2022/12/18 10:32:51;;;;;;;;;;;;;;;2.12;100.00;102815.94;5098262;28;19966;-74
2022/12/18 10:35:21;;;;;;;;;;;;;;;2.00;100.00;102814.53;5096997;28;20363;-74
2022/12/18 10:38:00;;;;;;;;;;;;;;;2.04;99.39;102809.19;5098012;28;19912;-74
2022/12/18 10:40:25;;;;;;;;;;;;;;;0.94;100.00;102789.75;5097770;28;20441;-74
2022/12/18 10:43:09;;;;;;;;;;;;;;;0.52;100.00;102786.47;5097856;28;19955;-74
2022/12/18 10:45:34;;;;;;;;;;;;;;;-0.25;100.00;102777.84;5096837;28;19908;-74
2022/12/18 10:48:00;;;;;;;;;;;;;;;-0.40;100.00;102771.22;5097691;28;19928;-74
2022/12/18 10:50:28;;;;;;;;;;;;;;;-0.51;100.00;102768.84;5097953;28;19908;-74
2022/12/18 10:53:00;;;;;;;;;;;;;;;-0.81;100.00;102759.94;5095124;28;20546;-74
2022/12/18 10:55:39;;;;;;;;;;;;;;;-1.35;100.00;102763.53;5096309;28;19907;-74
2022/12/18 10:58:20;;;;;;;;;;;;;;;-1.56;100.00;102754.38;5095513;28;19912;-74
2022/12/18 11:00:45;;;;;;;;;;;;;;;-1.85;100.00;102762.59;5097695;28;19969;-73
2022/12/18 11:03:29;;;;;;;;;;;;;;;-2.01;100.00;102753.34;5096785;28;20065;-74
2022/12/18 11:06:01;;;;;;;;;;;;;;;-2.30;100.00;102739.09;5096975;28;19924;-73
2022/12/18 11:08:26;;;;;;;;;;;;;;;-2.63;100.00;102735.22;5097258;28;19911;-73
2022/12/18 11:10:51;;;;;;;;;;;;;;;-2.60;100.00;102735.16;5097013;28;19922;-74
2022/12/18 11:13:22;;;;;;;;;;;;;;;-2.52;100.00;102734.19;5096398;28;20416;-74
2022/12/18 11:15:47;;;;;;;;;;;;;;;-2.67;100.00;102718.88;5104141;28;19918;-74
2022/12/18 11:18:31;;;;;;;;;;;;;;;-2.65;100.00;102714.53;5096965;28;20000;-74
2022/12/18 11:20:59;;;;;;;;;;;;;;;-2.58;100.00;102728.25;5103536;28;20379;-75
2022/12/18 11:23:25;;;;;;;;;;;;;;;-2.56;100.00;102727.34;5094696;28;20254;-74
2022/12/18 11:25:51;;;;;;;;;;;;;;;-2.49;100.00;102717.78;5096092;28;19951;-74
2022/12/18 11:28:46;;;;;;;;;;;;;;;-2.47;100.00;102710.00;5097962;28;20363;-74
2022/12/18 11:31:16;;;;;;;;;;;;;;;-2.50;100.00;102710.91;4997583;28;20328;-74
2022/12/18 11:33:57;;;;;;;;;;;;;;;-2.56;100.00;102711.84;5013860;28;20339;-74
2022/12/18 11:36:23;;;;;;;;;;;;;;;-2.52;100.00;102734.19;5013397;28;19920;-74
2022/12/18 11:38:50;;;;;;;;;;;;;;;-2.64;100.00;102733.50;4997932;28;20007;-74
2022/12/18 11:42:08;;;;;;;;;;;;;;;-2.53;100.00;102731.63;5013051;28;19917;-74
2022/12/18 11:44:19;;;;;;;;;;;;;;;-2.53;100.00;102735.06;5013303;28;19917;-75
2022/12/18 11:46:49;;;;;;;;;;;;;;;-2.47;100.00;102731.53;4996711;28;19909;-73
2022/12/18 11:49:18;;;;;;;;;;;;;;;-2.47;100.00;102723.78;5014656;28;20486;-74
2022/12/18 11:51:49;;;;;;;;;;;;;;;-2.42;100.00;102710.78;5005641;28;19920;-74
2022/12/18 11:54:15;;;;;;;;;;;;;;;-2.41;100.00;102704.75;5016015;28;19951;-74
2022/12/18 11:56:53;;;;;;;;;;;;;;;-2.50;100.00;102693.66;5000969;28;19917;-75
2022/12/18 11:59:25;;;;;;;;;;;;;;;-2.54;100.00;102686.81;5017654;28;19909;-74
2022/12/18 12:01:57;;;;;;;;;;;;;;;-2.53;100.00;102682.50;5017535;28;19917;-74
2022/12/18 12:04:25;;;;;;;;;;;;;;;-2.55;100.00;102677.38;5000782;28;19960;-74
2022/12/18 12:07:00;;;;;;;;;;;;;;;-2.62;100.00;102669.69;5032208;28;19912;-73
2022/12/18 12:09:44;;;;;;;;;;;;;;;-2.59;100.00;102682.56;5100159;28;20461;-74
2022/12/18 12:12:22;;;;;;;;;;;;;;;-2.57;100.00;102673.06;5100193;28;20010;-74
2022/12/18 12:15:00;;;;;;;;;;;;;;;-2.57;100.00;102663.59;5107263;28;20305;-73
2022/12/18 12:17:25;;;;;;;;;;;;;;;-2.60;100.00;102657.63;5100427;28;19916;-73
2022/12/18 12:19:56;;;;;;;;;;;;;;;-2.64;100.00;102651.63;5100627;28;19912;-73
2022/12/18 12:22:24;;;;;;;;;;;;;;;-2.60;100.00;102647.28;5099825;28;19916;-73
2022/12/18 12:24:58;;;;;;;;;;;;;;;-2.50;100.00;102639.38;5100019;28;20435;-72
2022/12/18 12:27:42;;;;;;;;;;;;;;;-2.60;100.00;102645.53;5100251;28;19908;-72
2022/12/18 12:30:09;;;;;;;;;;;;;;;-2.54;100.00;102632.53;5099416;28;20017;-72
2022/12/18 12:32:37;;;;;;;;;;;;;;;-2.54;100.00;102634.28;5099140;28;19911;-73
2022/12/18 12:35:05;;;;;;;;;;;;;;;-2.55;100.00;102628.25;5101059;28;20308;-72
2022/12/18 12:37:45;;;;;;;;;;;;;;;-2.52;100.00;102620.44;5099157;28;20293;-72
2022/12/18 12:40:14;;;;;;;;;;;;;;;-2.46;100.00;102623.81;5099451;28;19912;-72
2022/12/18 12:45:34;;;;;;;;;;;;;;;-2.41;100.00;102606.50;5100224;28;19919;-72
2022/12/18 12:48:01;;;;;;;;;;;;;;;-2.40;100.00;102609.03;5098405;28;19916;-72